sensor_id;sensor_type;location;lat;lon;timestamp;pressure;altitude;pressure_sealevel;temperature;humidity
84863;BME280;75117;43.224;76.776;2024-03-25T00:00:04;93065.81;;;5.72;80.32
84863;BME280;75117;43.224;76.776;2024-03-25T00:00:24;93094.22;;;5.88;80.38
84863;BME280;75117;43.224;76.776;2024-03-25T00:00:37;93088.22;;;5.87;80.39
84863;BME280;75117;43.224;76.776;2024-03-25T00:00:49;93096.34;;;5.85;80.67
84863;BME280;75117;43.224;76.776;2024-03-25T00:01:02;93093.72;;;5.85;80.26
84863;BME280;75117;43.224;76.776;2024-03-25T00:01:14;93070.25;;;5.72;80.43
84863;BME280;75117;43.224;76.776;2024-03-25T00:01:26;93089.56;;;5.84;81.23
84863;BME280;75117;43.224;76.776;2024-03-25T00:01:39;93084.34;;;5.84;80.95
84863;BME280;75117;43.224;76.776;2024-03-25T00:01:51;93095.59;;;5.85;80.49
84863;BME280;75117;43.224;76.776;2024-03-25T00:02:04;93064.88;;;5.68;80.57
84863;BME280;75117;43.224;76.776;2024-03-25T00:02:16;93067.97;;;5.70;80.64
84863;BME280;75117;43.224;76.776;2024-03-25T00:02:28;93092.81;;;5.81;81.14
84863;BME280;75117;43.224;76.776;2024-03-25T00:02:41;93073.69;;;5.72;80.94
84863;BME280;75117;43.224;76.776;2024-03-25T00:02:54;93091.75;;;5.82;80.79
84863;BME280;75117;43.224;76.776;2024-03-25T00:03:06;93089.13;;;5.82;81.12
84863;BME280;75117;43.224;76.776;2024-03-25T00:03:18;93062.84;;;5.65;80.90
84863;BME280;75117;43.224;76.776;2024-03-25T00:03:31;93089.41;;;5.81;80.99
84863;BME280;75117;43.224;76.776;2024-03-25T00:03:43;93087.59;;;5.81;80.73
84863;BME280;75117;43.224;76.776;2024-03-25T00:03:55;93094.63;;;5.81;80.34
84863;BME280;75117;43.224;76.776;2024-03-25T00:04:08;93074.72;;;5.71;80.28
84863;BME280;75117;43.224;76.776;2024-03-25T00:04:20;93086.31;;;5.79;81.05
84863;BME280;75117;43.224;76.776;2024-03-25T00:04:34;93087.41;;;5.78;80.49
84863;BME280;75117;43.224;76.776;2024-03-25T00:04:47;93090.47;;;5.80;81.36
84863;BME280;75117;43.224;76.776;2024-03-25T00:04:59;93094.94;;;5.79;81.28
84863;BME280;75117;43.224;76.776;2024-03-25T00:05:12;93090.03;;;5.78;80.66
84863;BME280;75117;43.224;76.776;2024-03-25T00:05:26;93093.72;;;5.77;81.20
84863;BME280;75117;43.224;76.776;2024-03-25T00:05:39;93101.59;;;5.77;81.12
84863;BME280;75117;43.224;76.776;2024-03-25T00:05:51;93098.47;;;5.75;81.04
84863;BME280;75117;43.224;76.776;2024-03-25T00:06:04;93097.88;;;5.78;80.46
84863;BME280;75117;43.224;76.776;2024-03-25T00:06:16;93082.75;;;5.75;80.63
84863;BME280;75117;43.224;76.776;2024-03-25T00:06:28;93070.53;;;5.62;81.20
84863;BME280;75117;43.224;76.776;2024-03-25T00:06:45;93091.38;;;5.75;81.35
84863;BME280;75117;43.224;76.776;2024-03-25T00:06:58;93093.25;;;5.75;81.34
84863;BME280;75117;43.224;76.776;2024-03-25T00:07:10;93094.00;;;5.75;80.85
84863;BME280;75117;43.224;76.776;2024-03-25T00:07:22;93087.53;;;5.73;81.13
84863;BME280;75117;43.224;76.776;2024-03-25T00:07:36;93090.94;;;5.73;81.44
84863;BME280;75117;43.224;76.776;2024-03-25T00:07:49;93092.59;;;5.69;80.97
84863;BME280;75117;43.224;76.776;2024-03-25T00:08:01;93089.69;;;5.71;81.22
84863;BME280;75117;43.224;76.776;2024-03-25T00:08:13;93094.91;;;5.71;80.43
84863;BME280;75117;43.224;76.776;2024-03-25T00:08:26;93101.69;;;5.72;80.60
84863;BME280;75117;43.224;76.776;2024-03-25T00:08:38;93087.38;;;5.69;80.69
84863;BME280;75117;43.224;76.776;2024-03-25T00:08:50;93089.69;;;5.71;80.80
84863;BME280;75117;43.224;76.776;2024-03-25T00:09:03;93082.13;;;5.69;81.11
84863;BME280;75117;43.224;76.776;2024-03-25T00:09:15;93089.22;;;5.69;81.06
84863;BME280;75117;43.224;76.776;2024-03-25T00:09:28;93093.69;;;5.68;81.32
84863;BME280;75117;43.224;76.776;2024-03-25T00:09:41;93090.28;;;5.68;80.70
84863;BME280;75117;43.224;76.776;2024-03-25T00:09:53;93092.75;;;5.64;80.36
84863;BME280;75117;43.224;76.776;2024-03-25T00:10:07;93092.13;;;5.67;80.69
84863;BME280;75117;43.224;76.776;2024-03-25T00:10:20;93099.97;;;5.67;80.83
84863;BME280;75117;43.224;76.776;2024-03-25T00:10:32;93092.44;;;5.66;80.63
84863;BME280;75117;43.224;76.776;2024-03-25T00:10:45;93092.75;;;5.64;81.33
84863;BME280;75117;43.224;76.776;2024-03-25T00:10:58;93091.47;;;5.62;80.67
84863;BME280;75117;43.224;76.776;2024-03-25T00:11:10;93097.81;;;5.60;81.14
84863;BME280;75117;43.224;76.776;2024-03-25T00:11:22;93094.88;;;5.62;81.11
84863;BME280;75117;43.224;76.776;2024-03-25T00:11:35;93092.66;;;5.47;80.25
84863;BME280;75117;43.224;76.776;2024-03-25T00:11:47;93096.53;;;5.58;81.01
84863;BME280;75117;43.224;76.776;2024-03-25T00:11:59;93088.69;;;5.58;80.20
84863;BME280;75117;43.224;76.776;2024-03-25T00:12:12;93094.22;;;5.56;81.26
84863;BME280;75117;43.224;76.776;2024-03-25T00:12:27;93075.53;;;5.41;80.42
84863;BME280;75117;43.224;76.776;2024-03-25T00:12:40;93099.28;;;5.53;80.73
84863;BME280;75117;43.224;76.776;2024-03-25T00:12:52;93103.44;;;5.54;80.52
84863;BME280;75117;43.224;76.776;2024-03-25T00:13:06;93086.50;;;5.51;80.67
84863;BME280;75117;43.224;76.776;2024-03-25T00:13:18;93096.22;;;5.51;80.80
84863;BME280;75117;43.224;76.776;2024-03-25T00:13:32;93097.28;;;5.50;80.80
84863;BME280;75117;43.224;76.776;2024-03-25T00:13:44;93101.72;;;5.49;80.35
84863;BME280;75117;43.224;76.776;2024-03-25T00:13:56;93091.56;;;5.48;80.27
84863;BME280;75117;43.224;76.776;2024-03-25T00:14:09;93098.97;;;5.46;81.04
84863;BME280;75117;43.224;76.776;2024-03-25T00:14:22;93087.25;;;5.43;81.16
84863;BME280;75117;43.224;76.776;2024-03-25T00:14:34;93082.25;;;5.33;81.11
84863;BME280;75117;43.224;76.776;2024-03-25T00:14:48;93089.41;;;5.41;81.16
84863;BME280;75117;43.224;76.776;2024-03-25T00:15:00;93095.69;;;5.40;81.30
84863;BME280;75117;43.224;76.776;2024-03-25T00:15:14;93091.25;;;5.41;81.40
84863;BME280;75117;43.224;76.776;2024-03-25T00:15:27;93091.06;;;5.37;80.44
84863;BME280;75117;43.224;76.776;2024-03-25T00:15:40;93091.34;;;5.35;81.20
84863;BME280;75117;43.224;76.776;2024-03-25T00:15:53;93090.88;;;5.33;81.67
84863;BME280;75117;43.224;76.776;2024-03-25T00:16:05;93092.16;;;5.36;81.05
84863;BME280;75117;43.224;76.776;2024-03-25T00:16:18;93095.34;;;5.33;81.13
84863;BME280;75117;43.224;76.776;2024-03-25T00:16:31;93072.63;;;5.20;81.84
84863;BME280;75117;43.224;76.776;2024-03-25T00:16:43;93087.81;;;5.31;82.14
84863;BME280;75117;43.224;76.776;2024-03-25T00:16:55;93080.19;;;5.21;81.66
84863;BME280;75117;43.224;76.776;2024-03-25T00:17:08;93087.97;;;5.35;81.74
84863;BME280;75117;43.224;76.776;2024-03-25T00:17:23;93083.34;;;5.32;81.96
84863;BME280;75117;43.224;76.776;2024-03-25T00:17:35;93090.41;;;5.31;82.17
84863;BME280;75117;43.224;76.776;2024-03-25T00:17:47;93098.44;;;5.35;81.86
84863;BME280;75117;43.224;76.776;2024-03-25T00:18:00;93069.25;;;5.19;81.80
84863;BME280;75117;43.224;76.776;2024-03-25T00:18:12;93093.50;;;5.33;81.49
84863;BME280;75117;43.224;76.776;2024-03-25T00:18:25;93092.16;;;5.36;81.90
84863;BME280;75117;43.224;76.776;2024-03-25T00:18:37;93090.28;;;5.37;81.68
84863;BME280;75117;43.224;76.776;2024-03-25T00:18:50;93091.34;;;5.35;82.30
84863;BME280;75117;43.224;76.776;2024-03-25T00:19:02;93093.97;;;5.35;81.73
84863;BME280;75117;43.224;76.776;2024-03-25T00:19:15;93097.84;;;5.38;81.05
84863;BME280;75117;43.224;76.776;2024-03-25T00:19:28;93087.50;;;5.33;81.84
84863;BME280;75117;43.224;76.776;2024-03-25T00:19:40;93094.44;;;5.38;82.16
84863;BME280;75117;43.224;76.776;2024-03-25T00:19:54;93092.59;;;5.38;81.78
84863;BME280;75117;43.224;76.776;2024-03-25T00:20:07;93087.69;;;5.37;81.32
84863;BME280;75117;43.224;76.776;2024-03-25T00:20:21;93091.34;;;5.35;81.61
84863;BME280;75117;43.224;76.776;2024-03-25T00:20:33;93096.47;;;5.41;81.44
84863;BME280;75117;43.224;76.776;2024-03-25T00:20:46;93083.63;;;5.30;81.82
84863;BME280;75117;43.224;76.776;2024-03-25T00:20:58;93100.91;;;5.40;81.69
84863;BME280;75117;43.224;76.776;2024-03-25T00:21:11;93081.19;;;5.34;81.88
84863;BME280;75117;43.224;76.776;2024-03-25T00:21:23;93090.28;;;5.37;81.94
84863;BME280;75117;43.224;76.776;2024-03-25T00:21:36;93092.78;;;5.42;81.24
84863;BME280;75117;43.224;76.776;2024-03-25T00:21:48;93092.28;;;5.40;82.72
84863;BME280;75117;43.224;76.776;2024-03-25T00:22:01;93073.28;;;5.25;81.49
84863;BME280;75117;43.224;76.776;2024-03-25T00:22:13;93102.47;;;5.41;81.41
84863;BME280;75117;43.224;76.776;2024-03-25T00:22:26;93092.00;;;5.41;82.06
84863;BME280;75117;43.224;76.776;2024-03-25T00:22:39;93092.00;;;5.41;81.18
84863;BME280;75117;43.224;76.776;2024-03-25T00:22:51;93075.63;;;5.27;81.31
84863;BME280;75117;43.224;76.776;2024-03-25T00:23:04;93094.63;;;5.41;81.54
84863;BME280;75117;43.224;76.776;2024-03-25T00:23:17;93093.56;;;5.42;81.51
84863;BME280;75117;43.224;76.776;2024-03-25T00:23:30;93076.53;;;5.31;81.38
84863;BME280;75117;43.224;76.776;2024-03-25T00:23:42;93089.69;;;5.40;82.30
84863;BME280;75117;43.224;76.776;2024-03-25T00:23:54;93100.63;;;5.42;82.70
84863;BME280;75117;43.224;76.776;2024-03-25T00:24:08;93088.63;;;5.41;81.33
84863;BME280;75117;43.224;76.776;2024-03-25T00:24:20;93092.00;;;5.41;81.78
84863;BME280;75117;43.224;76.776;2024-03-25T00:24:33;93092.00;;;5.41;81.15
84863;BME280;75117;43.224;76.776;2024-03-25T00:24:46;93087.53;;;5.42;81.06
84863;BME280;75117;43.224;76.776;2024-03-25T00:24:58;93073.00;;;5.27;82.00
84863;BME280;75117;43.224;76.776;2024-03-25T00:25:11;93096.94;;;5.43;81.29
84863;BME280;75117;43.224;76.776;2024-03-25T00:25:23;93071.94;;;5.28;81.52
84863;BME280;75117;43.224;76.776;2024-03-25T00:25:36;93092.78;;;5.42;81.49
84863;BME280;75117;43.224;76.776;2024-03-25T00:25:48;93096.94;;;5.43;81.63
84863;BME280;75117;43.224;76.776;2024-03-25T00:26:00;93096.94;;;5.43;81.36
84863;BME280;75117;43.224;76.776;2024-03-25T00:26:13;93090.94;;;5.42;80.95
84863;BME280;75117;43.224;76.776;2024-03-25T00:26:25;93099.88;;;5.41;81.08
84863;BME280;75117;43.224;76.776;2024-03-25T00:26:38;93094.31;;;5.43;81.39
84863;BME280;75117;43.224;76.776;2024-03-25T00:26:50;93081.66;;;5.36;81.88
84863;BME280;75117;43.224;76.776;2024-03-25T00:27:04;93096.94;;;5.43;80.91
84863;BME280;75117;43.224;76.776;2024-03-25T00:27:17;93100.31;;;5.43;81.07
84863;BME280;75117;43.224;76.776;2024-03-25T00:27:30;93093.56;;;5.42;80.66
84863;BME280;75117;43.224;76.776;2024-03-25T00:27:42;93106.31;;;5.44;81.28
84863;BME280;75117;43.224;76.776;2024-03-25T00:27:55;93095.09;;;5.43;80.69
84863;BME280;75117;43.224;76.776;2024-03-25T00:28:08;93094.31;;;5.43;81.21
84863;BME280;75117;43.224;76.776;2024-03-25T00:28:21;93094.63;;;5.41;81.34
84863;BME280;75117;43.224;76.776;2024-03-25T00:28:33;93088.63;;;5.41;81.15
84863;BME280;75117;43.224;76.776;2024-03-25T00:28:46;93099.88;;;5.41;81.02
84863;BME280;75117;43.224;76.776;2024-03-25T00:28:58;93105.09;;;5.41;81.53
84863;BME280;75117;43.224;76.776;2024-03-25T00:29:10;93064.03;;;5.19;81.73
84863;BME280;75117;43.224;76.776;2024-03-25T00:29:23;93098.28;;;5.40;81.38
84863;BME280;75117;43.224;76.776;2024-03-25T00:29:35;93098.28;;;5.40;81.62
84863;BME280;75117;43.224;76.776;2024-03-25T00:29:47;93101.22;;;5.39;81.71
84863;BME280;75117;43.224;76.776;2024-03-25T00:30:00;93097.53;;;5.40;81.16
84863;BME280;75117;43.224;76.776;2024-03-25T00:30:13;93094.91;;;5.40;81.26
84863;BME280;75117;43.224;76.776;2024-03-25T00:30:25;93070.47;;;5.22;81.15
84863;BME280;75117;43.224;76.776;2024-03-25T00:30:37;93086.53;;;5.29;81.66
84863;BME280;75117;43.224;76.776;2024-03-25T00:30:50;93105.38;;;5.40;81.66
84863;BME280;75117;43.224;76.776;2024-03-25T00:31:02;93074.66;;;5.23;82.18
84863;BME280;75117;43.224;76.776;2024-03-25T00:31:15;93105.38;;;5.40;82.04
84863;BME280;75117;43.224;76.776;2024-03-25T00:31:27;93095.22;;;5.38;82.45
84863;BME280;75117;43.224;76.776;2024-03-25T00:31:39;93102.00;;;5.39;82.25
84863;BME280;75117;43.224;76.776;2024-03-25T00:31:52;93098.28;;;5.40;82.16
84863;BME280;75117;43.224;76.776;2024-03-25T00:32:05;93095.69;;;5.40;82.46
84863;BME280;75117;43.224;76.776;2024-03-25T00:32:17;93100.00;;;5.36;81.68
84863;BME280;75117;43.224;76.776;2024-03-25T00:32:30;93088.84;;;5.30;82.02
84863;BME280;75117;43.224;76.776;2024-03-25T00:32:44;93102.47;;;5.41;82.29
84863;BME280;75117;43.224;76.776;2024-03-25T00:32:57;93098.91;;;5.37;81.79
84863;BME280;75117;43.224;76.776;2024-03-25T00:33:09;93096.00;;;5.39;82.12
84863;BME280;75117;43.224;76.776;2024-03-25T00:33:22;93095.41;;;5.42;81.76
84863;BME280;75117;43.224;76.776;2024-03-25T00:33:37;93097.72;;;5.43;81.82
84863;BME280;75117;43.224;76.776;2024-03-25T00:33:50;93099.88;;;5.41;82.24
84863;BME280;75117;43.224;76.776;2024-03-25T00:34:02;93098.78;;;5.42;82.84
84863;BME280;75117;43.224;76.776;2024-03-25T00:34:14;93097.41;;;5.45;82.83
84863;BME280;75117;43.224;76.776;2024-03-25T00:34:27;93075.78;;;5.30;82.69
84863;BME280;75117;43.224;76.776;2024-03-25T00:34:39;93085.53;;;5.39;82.59
84863;BME280;75117;43.224;76.776;2024-03-25T00:34:52;93098.66;;;5.47;81.78
84863;BME280;75117;43.224;76.776;2024-03-25T00:35:04;93096.81;;;5.48;82.72
84863;BME280;75117;43.224;76.776;2024-03-25T00:35:17;93099.44;;;5.48;81.94
84863;BME280;75117;43.224;76.776;2024-03-25T00:35:30;93097.56;;;5.48;82.12
84863;BME280;75117;43.224;76.776;2024-03-25T00:35:43;93098.06;;;5.50;82.70
84863;BME280;75117;43.224;76.776;2024-03-25T00:35:57;93099.59;;;5.51;81.46
84863;BME280;75117;43.224;76.776;2024-03-25T00:36:10;93098.84;;;5.51;81.60
84863;BME280;75117;43.224;76.776;2024-03-25T00:36:22;93110.84;;;5.52;81.94
84863;BME280;75117;43.224;76.776;2024-03-25T00:36:35;93092.06;;;5.50;80.95
84863;BME280;75117;43.224;76.776;2024-03-25T00:36:47;93098.06;;;5.50;81.30
84863;BME280;75117;43.224;76.776;2024-03-25T00:37:00;93092.34;;;5.48;82.23
84863;BME280;75117;43.224;76.776;2024-03-25T00:37:12;93102.53;;;5.50;82.25
84863;BME280;75117;43.224;76.776;2024-03-25T00:37:25;93097.75;;;5.52;80.99
84863;BME280;75117;43.224;76.776;2024-03-25T00:37:37;93100.38;;;5.52;81.47
84863;BME280;75117;43.224;76.776;2024-03-25T00:37:50;93077.84;;;5.42;81.66
84863;BME280;75117;43.224;76.776;2024-03-25T00:38:03;93094.38;;;5.51;81.90
84863;BME280;75117;43.224;76.776;2024-03-25T00:38:16;93102.53;;;5.50;81.42
84863;BME280;75117;43.224;76.776;2024-03-25T00:38:28;93096.22;;;5.51;81.57
84863;BME280;75117;43.224;76.776;2024-03-25T00:38:41;93101.72;;;5.49;81.23
84863;BME280;75117;43.224;76.776;2024-03-25T00:38:53;93099.13;;;5.49;81.14
84863;BME280;75117;43.224;76.776;2024-03-25T00:39:07;93074.09;;;5.34;81.27
84863;BME280;75117;43.224;76.776;2024-03-25T00:39:20;93095.72;;;5.49;81.63
84863;BME280;75117;43.224;76.776;2024-03-25T00:39:33;93094.97;;;5.48;82.16
84863;BME280;75117;43.224;76.776;2024-03-25T00:39:46;93104.19;;;5.46;81.52
84863;BME280;75117;43.224;76.776;2024-03-25T00:39:59;93091.41;;;5.44;81.96
84863;BME280;75117;43.224;76.776;2024-03-25T00:40:12;93091.09;;;5.46;81.33
84863;BME280;75117;43.224;76.776;2024-03-25T00:40:24;93096.94;;;5.43;81.91
84863;BME280;75117;43.224;76.776;2024-03-25T00:40:37;93094.78;;;5.45;81.86
84863;BME280;75117;43.224;76.776;2024-03-25T00:40:49;93097.41;;;5.45;82.83
84863;BME280;75117;43.224;76.776;2024-03-25T00:41:02;93101.59;;;5.46;82.43
84863;BME280;75117;43.224;76.776;2024-03-25T00:41:15;93071.78;;;5.33;82.03
84863;BME280;75117;43.224;76.776;2024-03-25T00:41:28;93094.63;;;5.41;82.46
84863;BME280;75117;43.224;76.776;2024-03-25T00:41:40;93109.44;;;5.46;82.90
84863;BME280;75117;43.224;76.776;2024-03-25T00:41:53;93076.53;;;5.31;82.28
84863;BME280;75117;43.224;76.776;2024-03-25T00:42:06;93098.19;;;5.45;82.16
84863;BME280;75117;43.224;76.776;2024-03-25T00:42:18;93107.59;;;5.46;81.37
84863;BME280;75117;43.224;76.776;2024-03-25T00:42:30;93097.13;;;5.46;81.95
84863;BME280;75117;43.224;76.776;2024-03-25T00:42:43;93078.88;;;5.32;82.59
84863;BME280;75117;43.224;76.776;2024-03-25T00:42:55;93100.81;;;5.45;81.89
84863;BME280;75117;43.224;76.776;2024-03-25T00:43:08;93105.44;;;5.48;81.88
84863;BME280;75117;43.224;76.776;2024-03-25T00:43:20;93098.19;;;5.45;82.25
84863;BME280;75117;43.224;76.776;2024-03-25T00:43:32;93106.97;;;5.49;82.32
84863;BME280;75117;43.224;76.776;2024-03-25T00:43:45;93081.19;;;5.34;81.59
84863;BME280;75117;43.224;76.776;2024-03-25T00:43:57;93092.06;;;5.50;82.18
84863;BME280;75117;43.224;76.776;2024-03-25T00:44:09;93102.53;;;5.50;82.00
84863;BME280;75117;43.224;76.776;2024-03-25T00:44:22;93099.91;;;5.50;82.50
84863;BME280;75117;43.224;76.776;2024-03-25T00:44:34;93101.91;;;5.53;82.14
84863;BME280;75117;43.224;76.776;2024-03-25T00:44:47;93093.59;;;5.51;82.20
84863;BME280;75117;43.224;76.776;2024-03-25T00:44:59;93095.44;;;5.50;81.79
84863;BME280;75117;43.224;76.776;2024-03-25T00:45:12;93086.28;;;5.39;82.05
84863;BME280;75117;43.224;76.776;2024-03-25T00:45:24;93097.28;;;5.50;81.97
84863;BME280;75117;43.224;76.776;2024-03-25T00:45:42;93103.75;;;5.52;82.74
84863;BME280;75117;43.224;76.776;2024-03-25T00:45:54;93102.84;;;5.57;82.29
84863;BME280;75117;43.224;76.776;2024-03-25T00:46:08;93100.25;;;5.57;82.49
84863;BME280;75117;43.224;76.776;2024-03-25T00:46:20;93085.88;;;5.46;81.95
84863;BME280;75117;43.224;76.776;2024-03-25T00:46:33;93104.41;;;5.58;82.15
84863;BME280;75117;43.224;76.776;2024-03-25T00:46:45;93105.16;;;5.58;81.72
84863;BME280;75117;43.224;76.776;2024-03-25T00:46:58;93087.25;;;5.43;81.50
84863;BME280;75117;43.224;76.776;2024-03-25T00:47:10;93116.13;;;5.60;82.24
84863;BME280;75117;43.224;76.776;2024-03-25T00:47:23;93104.13;;;5.59;81.75
84863;BME280;75117;43.224;76.776;2024-03-25T00:47:35;93104.88;;;5.60;82.64
84863;BME280;75117;43.224;76.776;2024-03-25T00:47:48;93105.66;;;5.60;82.44
84863;BME280;75117;43.224;76.776;2024-03-25T00:48:00;93106.44;;;5.61;82.17
84863;BME280;75117;43.224;76.776;2024-03-25T00:48:13;93109.03;;;5.61;81.52
84863;BME280;75117;43.224;76.776;2024-03-25T00:48:26;93111.66;;;5.61;82.53
84863;BME280;75117;43.224;76.776;2024-03-25T00:48:39;93104.56;;;5.62;81.60
84863;BME280;75117;43.224;76.776;2024-03-25T00:48:51;93107.19;;;5.62;81.84
84863;BME280;75117;43.224;76.776;2024-03-25T00:49:03;93109.50;;;5.63;81.47
84863;BME280;75117;43.224;76.776;2024-03-25T00:49:16;93111.84;;;5.65;81.77
84863;BME280;75117;43.224;76.776;2024-03-25T00:49:28;93108.72;;;5.63;82.07
84863;BME280;75117;43.224;76.776;2024-03-25T00:49:41;93109.22;;;5.65;81.60
84863;BME280;75117;43.224;76.776;2024-03-25T00:49:53;93112.59;;;5.65;82.14
84863;BME280;75117;43.224;76.776;2024-03-25T00:50:06;93083.41;;;5.49;82.05
84863;BME280;75117;43.224;76.776;2024-03-25T00:50:19;93106.59;;;5.65;81.71
84863;BME280;75117;43.224;76.776;2024-03-25T00:50:31;93109.69;;;5.67;81.96
84863;BME280;75117;43.224;76.776;2024-03-25T00:50:44;93104.75;;;5.65;81.90
84863;BME280;75117;43.224;76.776;2024-03-25T00:50:56;93092.22;;;5.53;81.78
84863;BME280;75117;43.224;76.776;2024-03-25T00:51:08;93107.38;;;5.65;81.60
84863;BME280;75117;43.224;76.776;2024-03-25T00:51:21;93105.22;;;5.67;81.35
84863;BME280;75117;43.224;76.776;2024-03-25T00:51:33;93107.53;;;5.69;81.60
84863;BME280;75117;43.224;76.776;2024-03-25T00:51:46;93109.69;;;5.67;81.76
84863;BME280;75117;43.224;76.776;2024-03-25T00:51:58;93087.47;;;5.55;82.06
84863;BME280;75117;43.224;76.776;2024-03-25T00:52:10;93118.03;;;5.69;82.18
84863;BME280;75117;43.224;76.776;2024-03-25T00:52:23;93107.25;;;5.70;81.63
84863;BME280;75117;43.224;76.776;2024-03-25T00:52:36;93112.47;;;5.70;81.80
84863;BME280;75117;43.224;76.776;2024-03-25T00:52:51;93111.22;;;5.68;81.58
84863;BME280;75117;43.224;76.776;2024-03-25T00:53:04;93108.78;;;5.71;82.12
84863;BME280;75117;43.224;76.776;2024-03-25T00:53:16;93112.97;;;5.72;81.28
84863;BME280;75117;43.224;76.776;2024-03-25T00:53:30;93103.53;;;5.71;82.03
84863;BME280;75117;43.224;76.776;2024-03-25T00:53:42;93078.97;;;5.50;81.50
84863;BME280;75117;43.224;76.776;2024-03-25T00:53:55;93086.38;;;5.56;80.98
84863;BME280;75117;43.224;76.776;2024-03-25T00:54:07;93087.91;;;5.57;81.47
84863;BME280;75117;43.224;76.776;2024-03-25T00:54:20;93093.16;;;5.57;81.55
84863;BME280;75117;43.224;76.776;2024-03-25T00:54:32;93100.47;;;5.69;81.34
84863;BME280;75117;43.224;76.776;2024-03-25T00:54:44;93109.09;;;5.70;81.60
84863;BME280;75117;43.224;76.776;2024-03-25T00:54:57;93109.53;;;5.72;81.71
84863;BME280;75117;43.224;76.776;2024-03-25T00:55:09;93105.88;;;5.73;81.02
84863;BME280;75117;43.224;76.776;2024-03-25T00:55:21;93102.00;;;5.70;81.37
84863;BME280;75117;43.224;76.776;2024-03-25T00:55:34;93107.72;;;5.72;80.47
84863;BME280;75117;43.224;76.776;2024-03-25T00:55:47;93107.84;;;5.67;80.59
84863;BME280;75117;43.224;76.776;2024-03-25T00:55:59;93115.59;;;5.72;80.57
84863;BME280;75117;43.224;76.776;2024-03-25T00:56:12;93112.97;;;5.72;80.50
84863;BME280;75117;43.224;76.776;2024-03-25T00:56:24;93115.59;;;5.72;81.18
84863;BME280;75117;43.224;76.776;2024-03-25T00:56:36;93110.34;;;5.72;81.19
84863;BME280;75117;43.224;76.776;2024-03-25T00:56:49;93084.53;;;5.57;81.18
84863;BME280;75117;43.224;76.776;2024-03-25T00:57:03;93102.59;;;5.67;80.94
84863;BME280;75117;43.224;76.776;2024-03-25T00:57:15;93109.09;;;5.70;81.25
84863;BME280;75117;43.224;76.776;2024-03-25T00:57:28;93109.09;;;5.70;80.69
84863;BME280;75117;43.224;76.776;2024-03-25T00:57:41;93110.94;;;5.69;81.38
84863;BME280;75117;43.224;76.776;2024-03-25T00:57:54;93099.50;;;5.65;80.72
84863;BME280;75117;43.224;76.776;2024-03-25T00:58:07;93111.22;;;5.68;80.72
84863;BME280;75117;43.224;76.776;2024-03-25T00:58:20;93115.41;;;5.69;80.02
84863;BME280;75117;43.224;76.776;2024-03-25T00:58:32;93102.72;;;5.62;80.75
84863;BME280;75117;43.224;76.776;2024-03-25T00:58:44;93100.28;;;5.66;81.28
84863;BME280;75117;43.224;76.776;2024-03-25T00:58:58;93108.59;;;5.68;80.69
84863;BME280;75117;43.224;76.776;2024-03-25T00:59:14;93105.06;;;5.64;80.61
84863;BME280;75117;43.224;76.776;2024-03-25T00:59:26;93105.53;;;5.66;81.33
84863;BME280;75117;43.224;76.776;2024-03-25T00:59:39;93113.56;;;5.69;80.92
84863;BME280;75117;43.224;76.776;2024-03-25T00:59:51;93111.72;;;5.70;81.30
84863;BME280;75117;43.224;76.776;2024-03-25T01:00:04;93092.69;;;5.55;81.08
84863;BME280;75117;43.224;76.776;2024-03-25T01:00:17;93108.31;;;5.69;81.24
84863;BME280;75117;43.224;76.776;2024-03-25T01:00:30;93112.47;;;5.70;82.20
84863;BME280;75117;43.224;76.776;2024-03-25T01:00:42;93105.97;;;5.68;81.49
84863;BME280;75117;43.224;76.776;2024-03-25T01:00:55;93106.94;;;5.72;81.09
84863;BME280;75117;43.224;76.776;2024-03-25T01:01:07;93111.72;;;5.70;80.69
84863;BME280;75117;43.224;76.776;2024-03-25T01:01:20;93103.53;;;5.71;81.15
84863;BME280;75117;43.224;76.776;2024-03-25T01:01:32;93101.81;;;5.67;81.10
84863;BME280;75117;43.224;76.776;2024-03-25T01:01:47;93119.75;;;5.73;81.08
84863;BME280;75117;43.224;76.776;2024-03-25T01:02:00;93118.97;;;5.73;81.59
84863;BME280;75117;43.224;76.776;2024-03-25T01:02:12;93116.03;;;5.74;81.08
84863;BME280;75117;43.224;76.776;2024-03-25T01:02:24;93109.25;;;5.73;81.57
84863;BME280;75117;43.224;76.776;2024-03-25T01:02:39;93120.50;;;5.74;81.20
84863;BME280;75117;43.224;76.776;2024-03-25T01:02:51;93091.03;;;5.59;81.14
84863;BME280;75117;43.224;76.776;2024-03-25T01:03:04;93094.41;;;5.60;81.34
84863;BME280;75117;43.224;76.776;2024-03-25T01:03:16;93113.41;;;5.74;80.58
84863;BME280;75117;43.224;76.776;2024-03-25T01:03:29;93095.19;;;5.60;80.54
84863;BME280;75117;43.224;76.776;2024-03-25T01:03:41;93116.63;;;5.71;81.88
84863;BME280;75117;43.224;76.776;2024-03-25T01:03:53;93093.66;;;5.59;80.37
84863;BME280;75117;43.224;76.776;2024-03-25T01:04:06;93090.25;;;5.59;80.57
84863;BME280;75117;43.224;76.776;2024-03-25T01:04:18;93124.66;;;5.75;81.02
84863;BME280;75117;43.224;76.776;2024-03-25T01:04:30;93110.63;;;5.71;80.36
84863;BME280;75117;43.224;76.776;2024-03-25T01:04:43;93122.03;;;5.75;80.91
84863;BME280;75117;43.224;76.776;2024-03-25T01:04:55;93126.50;;;5.74;81.01
84863;BME280;75117;43.224;76.776;2024-03-25T01:05:08;93115.59;;;5.72;80.50
84863;BME280;75117;43.224;76.776;2024-03-25T01:05:21;93104.25;;;5.63;79.87
84863;BME280;75117;43.224;76.776;2024-03-25T01:05:33;93102.72;;;5.62;80.78
84863;BME280;75117;43.224;76.776;2024-03-25T01:05:46;93124.47;;;5.71;79.99
84863;BME280;75117;43.224;76.776;2024-03-25T01:05:58;93113.56;;;5.69;80.07
84863;BME280;75117;43.224;76.776;2024-03-25T01:06:10;93123.91;;;5.74;80.67
84863;BME280;75117;43.224;76.776;2024-03-25T01:06:23;93114.78;;;5.72;80.26
84863;BME280;75117;43.224;76.776;2024-03-25T01:06:35;93124.19;;;5.73;79.68
84863;BME280;75117;43.224;76.776;2024-03-25T01:06:48;93110.63;;;5.71;80.65
84863;BME280;75117;43.224;76.776;2024-03-25T01:07:00;93121.59;;;5.73;80.54
84863;BME280;75117;43.224;76.776;2024-03-25T01:07:15;93126.81;;;5.73;80.41